Time;durP1;ratioP1;P1;durP2;ratioP2;P2;SDS_P1;SDS_P2;PMS_P1;PMS_P2;Temp;Humidity;BMP_temperature;BMP_pressure;BME280_temperature;BME280_humidity;BME280_pressure;Samples;Min_cycle;Max_cycle;Signal;HPM_P1;HPM_P2
2021/05/21 00:01:15;;;;;;;5.15;2.45;;;11.50;69.20;;;9.89;66.88;96045.66;5016095;28;20473;-70
2021/05/21 00:03:41;;;;;;;5.90;3.20;;;11.40;69.60;;;9.86;66.77;96049.50;5015660;28;20455;-69
2021/05/21 00:06:08;;;;;;;5.60;3.50;;;11.40;69.30;;;9.82;67.14;96045.59;5032418;28;20033;-70
2021/05/21 00:08:34;;;;;;;6.20;3.38;;;11.40;69.20;;;9.78;67.35;96042.53;5029553;28;20151;-70
2021/05/21 00:10:59;;;;;;;3.42;2.55;;;11.30;68.80;;;9.75;67.20;96039.47;5031205;28;20040;-69
2021/05/21 00:13:25;;;;;;;3.97;2.20;;;11.20;68.30;;;9.68;67.27;96028.88;5028292;28;20113;-69
2021/05/21 00:15:51;;;;;;;4.47;2.65;;;11.20;68.80;;;9.68;66.62;96028.88;4996392;28;20029;-69
2021/05/21 00:18:17;;;;;;;4.63;2.63;;;11.10;69.10;;;9.66;66.81;96025.63;5021317;28;20061;-69
2021/05/21 00:20:43;;;;;;;8.57;2.35;;;11.10;69.60;;;9.65;68.05;96023.19;5014864;28;20065;-70
2021/05/21 00:23:08;;;;;;;2.85;1.88;;;11.20;69.70;;;9.62;67.45;96018.31;5031837;28;20123;-69
2021/05/21 00:25:34;;;;;;;2.38;1.85;;;11.10;68.40;;;9.58;67.06;96012.63;5015376;28;20121;-69
2021/05/21 00:28:00;;;;;;;2.90;1.90;;;11.10;69.00;;;9.55;67.14;96005.09;5031236;28;20053;-69
2021/05/21 00:30:26;;;;;;;2.85;1.60;;;11.10;69.20;;;9.55;67.69;96005.09;5014958;28;20041;-70
2021/05/21 00:32:51;;;;;;;1.92;1.48;;;11.10;69.80;;;9.55;67.94;95997.22;5031411;28;20132;-69
2021/05/21 00:35:17;;;;;;;2.17;1.40;;;11.10;69.60;;;9.54;68.08;95990.34;5015269;28;20033;-69
2021/05/21 00:37:43;;;;;;;2.78;1.30;;;11.10;69.30;;;9.55;67.27;95991.97;5014604;28;20029;-69
2021/05/21 00:40:09;;;;;;;3.33;1.20;;;11.10;69.00;;;9.52;67.92;95987.09;5031325;28;20041;-69
2021/05/21 00:42:35;;;;;;;4.05;1.70;;;11.10;69.40;;;9.50;67.44;95984.66;5029663;28;20038;-71
2021/05/21 00:45:01;;;;;;;6.60;3.20;;;11.10;69.30;;;9.48;68.02;95980.56;5015309;28;20025;-68
2021/05/21 00:47:27;;;;;;;3.10;1.83;;;11.10;68.90;;;9.49;66.99;95975.13;5015122;28;20060;-70
2021/05/21 00:49:53;;;;;;;7.55;4.35;;;11.10;68.30;;;9.48;67.83;95976.13;5026354;28;20510;-69
2021/05/21 00:52:19;;;;;;;16.33;9.43;;;11.10;68.10;;;9.48;67.29;95967.44;5010839;28;20053;-68
2021/05/21 00:54:45;;;;;;;19.55;8.85;;;11.00;69.20;;;9.45;68.12;95970.44;5014657;28;20112;-69
2021/05/21 00:57:10;;;;;;;7.70;4.75;;;11.00;68.70;;;9.39;67.54;95965.94;5014969;28;20025;-69
2021/05/21 00:59:36;;;;;;;6.97;3.25;;;10.90;68.40;;;9.38;67.40;95964.31;5013305;28;20107;-69
2021/05/21 01:02:02;;;;;;;3.88;2.97;;;11.00;68.40;;;9.36;66.96;95969.75;5009909;28;20149;-69
2021/05/21 01:04:28;;;;;;;4.13;3.08;;;10.90;68.20;;;9.33;67.60;95966.69;5024431;28;20033;-69
2021/05/21 01:06:54;;;;;;;4.57;2.33;;;10.90;68.50;;;9.32;67.42;95954.56;5024079;28;20064;-69
2021/05/21 01:09:19;;;;;;;2.33;2.08;;;10.90;68.30;;;9.32;67.47;95950.13;5010985;28;20045;-69
2021/05/21 01:11:45;;;;;;;2.60;1.42;;;10.90;68.70;;;9.29;67.00;95953.13;4995082;28;20103;-69
2021/05/21 01:14:11;;;;;;;2.97;1.20;;;10.80;68.00;;;9.28;67.32;95958.53;5028213;28;20041;-69
2021/05/21 01:16:36;;;;;;;5.15;1.38;;;10.80;68.00;;;9.26;67.57;95965.75;5030474;28;20190;-69
2021/05/21 01:19:04;;;;;;;2.08;1.05;;;10.70;68.50;;;9.21;66.97;95947.94;5013922;28;20091;-69
2021/05/21 01:21:35;;;;;;;4.35;1.10;;;10.70;68.80;;;9.15;67.72;95949.50;5014419;28;20042;-69
2021/05/21 01:24:05;;;;;;;2.22;0.90;;;10.70;68.70;;;9.13;67.66;95941.00;5031137;28;20037;-70
2021/05/21 01:26:31;;;;;;;1.37;0.90;;;10.60;68.30;;;9.12;67.59;95941.19;5030138;28;20065;-69
2021/05/21 01:28:57;;;;;;;2.22;0.63;;;10.60;68.40;;;9.11;67.14;95943.00;5023426;28;20385;-70
2021/05/21 01:31:23;;;;;;;1.50;0.70;;;10.60;68.50;;;9.10;66.95;95938.75;5041992;28;20516;-69
2021/05/21 01:33:53;;;;;;;0.70;0.60;;;10.60;68.30;;;9.10;66.87;95948.44;5030875;28;20036;-69
2021/05/21 01:36:19;;;;;;;2.95;0.80;;;10.60;68.40;;;9.08;67.00;95947.81;5013287;28;20056;-69
2021/05/21 01:39:01;;;;;;;0.85;0.68;;;10.60;69.30;;;9.07;69.07;95938.31;5013529;28;20045;-69
2021/05/21 01:41:28;;;;;;;3.30;0.60;;;10.60;69.60;;;9.02;67.66;95924.91;5030593;28;20034;-69
2021/05/21 01:43:55;;;;;;;1.15;0.65;;;10.60;69.40;;;9.00;68.37;95917.22;5013635;28;20042;-69
2021/05/21 01:46:21;;;;;;;0.80;0.50;;;10.60;69.60;;;9.00;67.62;95917.22;5030296;28;20034;-69
2021/05/21 01:48:47;;;;;;;1.50;0.65;;;10.60;69.00;;;8.99;68.04;95923.47;5029479;28;20036;-69
2021/05/21 01:51:13;;;;;;;1.75;0.60;;;10.50;69.00;;;8.96;67.81;95913.34;5030368;28;20034;-68
2021/05/21 01:53:38;;;;;;;2.08;0.80;;;10.50;69.40;;;8.94;68.32;95910.09;4994063;28;20040;-69
2021/05/21 01:56:06;;;;;;;2.00;0.80;;;10.50;69.70;;;8.94;68.50;95910.09;5005406;28;20056;-68
2021/05/21 01:58:32;;;;;;;1.23;0.45;;;10.50;69.90;;;8.91;68.22;95884.22;5029289;28;20037;-69
2021/05/21 02:00:57;;;;;;;1.55;0.80;;;10.50;69.80;;;8.91;67.88;95873.75;5028887;28;20524;-70
2021/05/21 02:03:23;;;;;;;2.75;0.70;;;10.50;69.80;;;8.88;68.23;95882.78;5030570;28;20056;-69
2021/05/21 02:05:49;;;;;;;2.03;0.65;;;10.50;69.50;;;8.92;68.80;95887.66;5013701;28;20410;-70
2021/05/21 02:08:15;;;;;;;1.40;0.70;;;10.50;70.00;;;8.89;68.46;95878.34;5026584;28;20580;-70
2021/05/21 02:10:40;;;;;;;1.52;0.85;;;10.50;70.10;;;8.85;68.64;95887.59;5020312;28;20060;-69
2021/05/21 02:13:07;;;;;;;1.88;0.90;;;10.50;69.80;;;8.87;68.52;95888.22;4997172;28;20041;-69
2021/05/21 02:15:32;;;;;;;1.90;0.70;;;10.50;70.00;;;8.84;68.58;95878.09;5010207;28;20117;-69
2021/05/21 02:17:59;;;;;;;2.05;1.00;;;10.40;69.70;;;8.82;68.54;95869.56;4998767;28;20535;-69
2021/05/21 02:20:25;;;;;;;1.52;0.70;;;10.40;70.10;;;8.81;68.68;95873.19;5029963;28;20346;-70
2021/05/21 02:22:50;;;;;;;1.20;0.70;;;10.40;70.20;;;8.80;68.48;95877.63;5029307;28;20061;-69
2021/05/21 02:25:16;;;;;;;0.82;0.70;;;10.40;70.40;;;8.80;69.01;95871.56;5013541;28;20037;-69
2021/05/21 02:27:42;;;;;;;1.83;0.80;;;10.30;70.40;;;8.77;68.32;95871.94;5030520;28;20532;-70
2021/05/21 02:30:12;;;;;;;1.35;0.70;;;10.30;70.50;;;8.74;69.03;95867.06;5030689;28;20120;-69
2021/05/21 02:32:38;;;;;;;1.48;0.80;;;10.10;70.70;;;8.69;68.94;95865.00;5013335;28;20036;-69
2021/05/21 02:35:05;;;;;;;1.75;0.70;;;10.10;71.00;;;8.65;68.82;95853.25;5029536;28;20033;-69
2021/05/21 02:37:31;;;;;;;1.00;0.70;;;10.10;71.20;;;8.63;69.07;95857.88;5013050;28;20099;-69
2021/05/21 02:39:57;;;;;;;2.17;0.73;;;10.10;71.50;;;8.61;69.11;95856.44;5029246;28;20590;-69
2021/05/21 02:42:23;;;;;;;1.08;0.60;;;10.00;71.50;;;8.53;69.36;95858.13;5029194;28;20068;-68
2021/05/21 02:44:49;;;;;;;1.65;0.70;;;9.90;71.70;;;8.51;69.11;95857.50;5028932;28;20501;-69
2021/05/21 02:47:14;;;;;;;1.63;0.50;;;10.00;71.10;;;8.50;69.26;95861.13;5029256;28;20416;-70
2021/05/21 02:49:40;;;;;;;2.22;0.50;;;9.90;70.80;;;8.47;69.16;95860.69;5037270;28;20566;-70
2021/05/21 02:52:06;;;;;;;1.52;0.57;;;9.90;70.80;;;8.46;68.73;95864.28;5012659;28;20045;-68
2021/05/21 02:54:31;;;;;;;0.50;0.40;;;9.80;70.90;;;8.46;69.13;95865.09;5012649;28;20063;-70
2021/05/21 02:56:57;;;;;;;3.38;0.50;;;9.90;71.00;;;8.45;69.52;95858.25;5028683;28;20038;-70
2021/05/21 02:59:23;;;;;;;1.05;0.45;;;9.90;70.80;;;8.46;69.27;95849.38;5028319;28;20096;-67
2021/05/21 03:01:49;;;;;;;0.90;0.47;;;9.90;70.90;;;8.48;69.18;95846.56;5028473;28;20053;-69
2021/05/21 03:04:14;;;;;;;0.93;0.43;;;10.00;70.60;;;8.50;69.12;95850.63;5022400;28;20148;-70
2021/05/21 03:06:40;;;;;;;1.90;0.60;;;10.00;70.80;;;8.52;69.22;95848.66;5007356;28;20509;-67
2021/05/21 03:09:06;;;;;;;1.52;0.60;;;10.00;70.80;;;8.55;69.26;95848.28;5011850;28;20099;-67
2021/05/21 03:11:31;;;;;;;2.63;0.50;;;10.10;71.00;;;8.53;69.46;95849.47;5027943;28;20065;-67
2021/05/21 03:13:57;;;;;;;0.85;0.50;;;10.00;71.10;;;8.56;69.31;95844.66;5028034;28;20053;-67
2021/05/21 03:16:23;;;;;;;2.97;0.70;;;10.10;70.90;;;8.55;69.21;95848.28;5030037;28;20037;-69
2021/05/21 03:18:49;;;;;;;0.88;0.45;;;10.00;70.90;;;8.51;69.22;95836.53;5010448;28;20068;-67
2021/05/21 03:21:14;;;;;;;0.68;0.47;;;10.00;71.30;;;8.54;69.59;95836.16;5019908;28;20038;-67
2021/05/21 03:23:40;;;;;;;1.58;0.60;;;10.10;71.20;;;8.55;69.61;95826.50;5041557;28;20042;-67
2021/05/21 03:26:06;;;;;;;1.30;0.50;;;10.10;71.30;;;8.55;70.01;95822.06;5028635;28;20029;-68
2021/05/21 03:28:32;;;;;;;0.65;0.40;;;10.20;71.30;;;8.58;69.82;95816.44;5011377;28;20500;-68
2021/05/21 03:30:58;;;;;;;0.90;0.50;;;10.10;71.50;;;8.55;69.52;95811.56;5011760;28;20030;-67
2021/05/21 03:33:23;;;;;;;1.48;0.63;;;10.10;71.80;;;8.54;69.68;95809.13;5027966;28;20509;-68
2021/05/21 03:35:49;;;;;;;2.10;0.50;;;10.20;71.40;;;8.50;70.04;95808.69;5024946;28;20113;-68
2021/05/21 03:38:15;;;;;;;1.85;0.40;;;10.00;71.60;;;8.50;70.04;95807.88;5017739;28;20034;-67
2021/05/21 03:40:41;;;;;;;1.65;0.40;;;10.10;71.70;;;8.47;70.13;95801.22;5044112;28;20179;-68
2021/05/21 03:43:07;;;;;;;1.45;0.70;;;10.10;71.60;;;8.47;70.03;95792.53;5010206;28;20037;-68
2021/05/21 03:45:33;;;;;;;0.75;0.47;;;10.10;72.20;;;8.45;70.14;95784.84;5011326;28;20418;-67
2021/05/21 03:47:59;;;;;;;2.25;0.60;;;10.10;71.90;;;8.45;70.44;95773.56;5025046;28;20033;-67
2021/05/21 03:50:24;;;;;;;1.13;0.40;;;10.10;71.70;;;8.46;70.30;95783.84;5019600;28;20033;-68
2021/05/21 03:52:50;;;;;;;0.60;0.50;;;10.10;71.40;;;8.45;70.03;95779.59;5029153;28;20099;-67
2021/05/21 03:55:17;;;;;;;3.20;0.47;;;10.00;71.70;;;8.45;70.64;95789.28;5025004;28;20169;-68
2021/05/21 03:57:42;;;;;;;0.70;0.50;;;10.00;71.60;;;8.45;69.95;95777.00;4995204;28;20034;-68
2021/05/21 04:00:13;;;;;;;0.85;0.60;;;10.10;71.60;;;8.46;71.06;95781.22;5027868;28;20386;-67
2021/05/21 04:02:39;;;;;;;3.70;0.80;;;10.10;71.60;;;8.46;70.38;95786.47;5021731;28;20029;-67
2021/05/21 04:05:06;;;;;;;1.67;0.60;;;10.10;71.60;;;8.44;70.32;95787.66;4994863;28;20413;-68
2021/05/21 04:07:31;;;;;;;1.35;0.50;;;10.00;71.60;;;8.44;70.20;95780.59;5000672;28;20050;-67
2021/05/21 04:09:57;;;;;;;0.50;0.30;;;10.00;71.70;;;8.45;70.18;95774.38;5025808;28;20061;-67
2021/05/21 04:12:25;;;;;;;1.33;0.47;;;10.10;71.00;;;8.49;70.47;95780.88;5008594;28;20084;-67
2021/05/21 04:14:51;;;;;;;1.05;0.40;;;10.20;71.00;;;8.54;69.75;95773.25;4992019;28;20494;-68
2021/05/21 04:17:19;;;;;;;0.50;0.30;;;10.20;70.40;;;8.58;69.88;95777.13;5012102;28;20044;-68
2021/05/21 04:19:45;;;;;;;0.82;0.40;;;10.30;69.90;;;8.62;69.83;95767.13;5007669;28;20064;-70
2021/05/21 04:22:11;;;;;;;0.30;0.30;;;10.30;69.80;;;8.66;69.42;95770.16;5022303;28;20042;-69
2021/05/21 04:24:37;;;;;;;3.05;0.57;;;10.30;69.80;;;8.70;70.04;95776.66;5030901;28;20029;-70
2021/05/21 04:27:03;;;;;;;0.43;0.35;;;10.40;69.60;;;8.75;69.25;95766.44;5031620;28;20470;-70
2021/05/21 04:29:29;;;;;;;1.80;0.40;;;10.50;69.60;;;8.80;69.31;95759.63;5015023;28;20512;-70
2021/05/21 04:31:54;;;;;;;0.68;0.40;;;10.50;69.30;;;8.83;69.28;95766.31;5031240;28;20037;-69
2021/05/21 04:34:20;;;;;;;0.73;0.38;;;10.50;69.00;;;8.87;68.98;95762.34;5031464;28;20061;-70
2021/05/21 04:36:46;;;;;;;2.88;0.60;;;10.60;68.90;;;8.88;68.95;95763.97;5031305;28;20033;-65
2021/05/21 04:39:12;;;;;;;0.60;0.43;;;10.40;68.90;;;8.90;69.02;95761.97;5031182;28;20045;-68
2021/05/21 04:41:37;;;;;;;0.65;0.40;;;10.50;68.80;;;8.90;69.13;95759.34;5032828;28;20658;-67
2021/05/21 04:44:03;;;;;;;0.60;0.40;;;10.40;69.10;;;8.90;69.02;95761.97;5031218;28;20080;-68
2021/05/21 04:46:29;;;;;;;1.05;0.40;;;10.40;69.00;;;8.90;68.87;95762.75;5031050;28;20041;-67
2021/05/21 04:48:55;;;;;;;2.50;0.40;;;10.40;69.10;;;8.93;69.07;95761.56;5030319;28;20446;-69
2021/05/21 04:51:20;;;;;;;1.15;0.50;;;10.60;69.00;;;8.97;68.17;95757.56;5034378;28;20115;-72
2021/05/21 04:53:46;;;;;;;0.82;0.50;;;10.60;69.10;;;9.01;68.62;95766.69;5031193;28;20029;-66
2021/05/21 04:56:12;;;;;;;0.55;0.40;;;10.60;68.80;;;9.05;69.06;95770.59;5044472;28;20128;-71
2021/05/21 04:58:38;;;;;;;5.43;0.60;;;10.60;68.60;;;9.09;68.41;95771.84;5003266;28;20565;-65
2021/05/21 05:01:04;;;;;;;1.92;0.50;;;10.70;68.70;;;9.13;68.82;95762.59;5028368;28;20025;-67
2021/05/21 05:03:30;;;;;;;0.88;0.40;;;10.80;68.30;;;9.18;68.69;95773.31;5013634;28;20033;-67
2021/05/21 05:05:56;;;;;;;0.95;0.40;;;10.80;68.00;;;9.22;68.42;95771.13;5012195;28;20500;-66
2021/05/21 05:08:21;;;;;;;2.63;0.70;;;10.80;67.90;;;9.27;68.78;95775.81;5027101;28;20030;-66
2021/05/21 05:10:49;;;;;;;1.00;0.40;;;10.90;68.00;;;9.33;68.06;95765.38;5023116;28;20025;-66
2021/05/21 05:13:15;;;;;;;2.35;0.60;;;11.10;67.70;;;9.40;68.73;95762.81;5030571;28;20041;-65
2021/05/21 05:15:42;;;;;;;1.10;0.50;;;11.10;67.40;;;9.45;68.06;95766.47;5014687;28;20116;-66
2021/05/21 05:18:08;;;;;;;0.47;0.47;;;11.10;66.90;;;9.50;68.05;95764.13;5026884;28;20054;-66
2021/05/21 05:20:34;;;;;;;3.55;0.52;;;11.30;67.20;;;9.61;68.61;95770.66;5027073;28;20041;-66
2021/05/21 05:23:00;;;;;;;2.58;0.50;;;11.40;66.70;;;9.69;67.79;95767.88;5030300;28;20032;-66
2021/05/21 05:25:25;;;;;;;1.20;0.43;;;11.60;66.10;;;9.80;67.81;95751.59;4997668;28;20112;-67
2021/05/21 05:27:51;;;;;;;4.50;2.40;;;11.80;66.00;;;9.94;68.08;95759.53;4992347;28;20473;-68
2021/05/21 05:30:18;;;;;;;2.83;1.35;;;11.90;65.50;;;10.04;67.63;95754.75;5012647;28;20034;-65
2021/05/21 05:32:44;;;;;;;3.67;1.88;;;12.00;65.80;;;10.13;67.38;95749.16;5012357;28;20034;-65
2021/05/21 05:35:10;;;;;;;10.68;6.03;;;12.10;65.10;;;10.24;67.25;95747.84;5033113;28;20424;-66
2021/05/21 05:37:36;;;;;;;5.47;2.70;;;12.20;65.30;;;10.36;67.71;95748.06;5030682;28;20033;-67
2021/05/21 05:40:03;;;;;;;1.77;0.98;;;12.40;64.80;;;10.46;67.61;95742.47;5026121;28;20084;-67
2021/05/21 05:42:29;;;;;;;4.72;1.98;;;12.50;64.10;;;10.56;66.99;95738.44;5023028;28;20045;-67
2021/05/21 05:44:54;;;;;;;3.38;1.50;;;12.50;63.30;;;10.65;66.04;95731.19;4997003;28;20036;-67
2021/05/21 05:47:20;;;;;;;3.53;0.85;;;12.60;63.50;;;10.73;65.76;95723.13;5008063;28;20038;-66
2021/05/21 05:49:46;;;;;;;2.65;0.45;;;12.70;63.20;;;10.82;66.42;95727.19;5028011;28;20135;-67
2021/05/21 05:52:11;;;;;;;0.73;0.50;;;12.70;63.40;;;10.91;67.11;95726.00;5012783;28;20038;-67
2021/05/21 05:54:37;;;;;;;1.67;0.60;;;12.90;63.60;;;11.00;66.09;95727.41;5029959;28;20144;-67
2021/05/21 05:57:03;;;;;;;0.70;0.50;;;13.00;62.40;;;11.07;65.70;95723.97;5030813;28;20033;-69
2021/05/21 05:59:30;;;;;;;1.25;0.50;;;13.10;62.20;;;11.17;66.24;95719.13;5011596;28;20516;-67
2021/05/21 06:01:56;;;;;;;2.45;0.95;;;13.30;61.90;;;11.34;65.99;95726.44;5030076;28;20099;-67
2021/05/21 06:04:21;;;;;;;6.07;0.70;;;13.70;61.10;;;11.53;65.93;95732.69;5027992;28;20108;-68
2021/05/21 06:06:48;;;;;;;3.25;0.85;;;14.00;60.10;;;11.69;64.80;95726.22;4980357;28;20493;-67
2021/05/21 06:09:14;;;;;;;1.13;0.55;;;14.10;59.70;;;11.84;64.69;95721.56;5028315;28;20045;-66
2021/05/21 06:11:40;;;;;;;1.00;0.60;;;14.30;59.20;;;12.03;64.45;95719.09;5023545;28;20416;-67
2021/05/21 06:14:05;;;;;;;0.90;0.52;;;14.60;57.90;;;12.18;64.04;95711.72;5019585;28;20535;-67
2021/05/21 06:16:31;;;;;;;1.45;0.50;;;14.60;57.20;;;12.31;64.02;95709.06;5012383;28;20034;-65
2021/05/21 06:18:57;;;;;;;2.90;0.63;;;14.70;56.50;;;12.46;63.15;95706.16;5028540;28;20540;-63
2021/05/21 06:21:23;;;;;;;2.85;0.68;;;15.00;56.50;;;12.61;63.17;95711.16;5029028;28;20055;-67
2021/05/21 06:23:49;;;;;;;6.43;3.83;;;15.10;55.90;;;12.73;63.33;95705.00;5028626;28;20537;-67
2021/05/21 06:26:30;;;;;;;3.15;1.00;;;15.10;55.90;;;12.84;62.93;95706.94;5028459;28;20068;-66
2021/05/21 06:28:56;;;;;;;1.85;1.05;;;15.30;55.50;;;12.99;62.17;95695.28;5021227;28;20105;-67
2021/05/21 06:31:22;;;;;;;1.00;0.60;;;15.50;55.00;;;13.10;61.99;95699.88;5022983;28;20029;-67
2021/05/21 06:33:48;;;;;;;1.02;0.40;;;15.50;54.10;;;13.23;61.40;95699.81;5012572;28;20062;-65
2021/05/21 06:36:14;;;;;;;1.63;0.63;;;15.80;53.50;;;13.37;61.51;95695.25;5041186;28;20045;-67
2021/05/21 06:38:40;;;;;;;2.58;0.60;;;16.00;52.80;;;13.56;61.63;95688.16;5027922;28;20744;-68
2021/05/21 06:41:06;;;;;;;0.85;0.55;;;16.40;52.90;;;13.78;61.64;95692.00;5028603;28;20381;-68
2021/05/21 06:43:31;;;;;;;7.57;2.50;;;16.80;50.60;;;13.98;60.06;95684.69;4993309;28;20041;-67
2021/05/21 06:45:58;;;;;;;1.98;0.55;;;16.90;48.10;;;14.17;59.80;95680.22;4999552;28;20135;-68
2021/05/21 06:48:31;;;;;;;1.85;0.30;;;17.10;47.70;;;14.39;59.08;95675.25;5033998;28;20257;-67
2021/05/21 06:51:02;;;;;;;0.63;0.40;;;17.20;47.80;;;14.55;55.01;95679.97;5029849;28;20406;-67
2021/05/21 06:53:28;;;;;;;;;;;17.10;46.80;;;14.69;54.40;95668.16;5030179;28;20029;-67
2021/05/21 06:55:54;;;;;;;1.58;0.45;;;17.10;47.30;;;14.74;57.21;95669.34;5029033;28;19925;-67
2021/05/21 06:58:20;;;;;;;1.23;0.60;;;16.80;47.50;;;14.71;57.51;95662.66;5028441;28;20038;-67
2021/05/21 07:00:47;;;;;;;1.33;0.52;;;16.60;48.50;;;14.70;55.36;95669.78;5039415;28;20515;-67
2021/05/21 07:03:13;;;;;;;1.05;0.45;;;16.60;49.30;;;14.65;55.63;95667.00;4992246;28;20038;-67
2021/05/21 07:05:40;;;;;;;0.68;0.40;;;16.50;49.30;;;14.63;55.84;95669.06;5025216;28;20073;-67
2021/05/21 07:08:07;;;;;;;2.45;0.70;;;16.50;49.60;;;14.57;55.64;95666.53;5028042;28;20123;-67
2021/05/21 07:10:32;;;;;;;0.82;0.43;;;16.30;50.70;;;14.52;56.63;95672.50;5010361;28;20026;-65
2021/05/21 07:13:12;;;;;;;2.92;0.50;;;16.30;51.00;;;14.46;54.66;95668.06;5010984;28;20030;-67
2021/05/21 07:15:38;;;;;;;4.70;1.85;;;16.20;51.20;;;14.42;57.10;95666.88;5011835;28;20026;-67
2021/05/21 07:18:04;;;;;;;10.10;6.43;;;16.20;50.80;;;14.35;56.32;95666.97;5021066;28;20037;-68
2021/05/21 07:20:30;;;;;;;5.05;3.83;;;16.10;50.90;;;14.31;56.28;95655.22;5027760;28;20033;-68
2021/05/21 07:22:56;;;;;;;2.72;0.95;;;16.20;51.40;;;14.28;55.17;95660.16;5012310;28;20084;-66
2021/05/21 07:25:22;;;;;;;3.63;0.60;;;16.10;50.10;;;14.17;55.71;95658.25;5034917;28;20075;-67
2021/05/21 07:27:47;;;;;;;0.63;0.50;;;15.70;50.00;;;14.04;54.82;95649.44;5031697;28;20120;-68
2021/05/21 07:30:16;;;;;;;1.08;0.50;;;15.50;50.10;;;13.96;55.32;95636.50;5027714;28;20102;-69
2021/05/21 07:32:42;;;;;;;2.40;0.65;;;15.50;50.70;;;13.91;54.69;95639.00;5027255;28;20033;-69
2021/05/21 07:35:08;;;;;;;2.05;0.63;;;15.60;51.10;;;13.90;55.37;95653.25;5025216;28;20100;-68
2021/05/21 07:37:34;;;;;;;3.13;0.60;;;15.50;50.70;;;13.84;55.83;95643.56;5008381;28;20074;-66
2021/05/21 07:40:01;;;;;;;0.80;0.38;;;15.50;51.30;;;13.83;54.77;95639.31;5027397;28;20068;-68
2021/05/21 07:42:27;;;;;;;2.22;0.40;;;15.50;51.10;;;13.83;55.81;95641.97;5028209;28;20049;-67
2021/05/21 07:44:53;;;;;;;2.70;0.60;;;15.60;51.30;;;13.84;55.01;95624.25;5027402;28;20562;-70
2021/05/21 07:47:20;;;;;;;2.55;0.82;;;15.60;51.50;;;13.83;55.92;95636.66;5028675;28;20030;-67
2021/05/21 07:49:46;;;;;;;4.07;0.55;;;15.60;51.40;;;13.85;55.90;95624.03;5006616;28;20623;-66
2021/05/21 07:52:12;;;;;;;1.80;0.60;;;15.60;51.60;;;13.92;55.98;95627.41;5008697;28;20038;-67
2021/05/21 07:54:37;;;;;;;0.70;0.40;;;15.80;51.10;;;13.94;55.94;95629.81;5038557;28;20454;-67
2021/05/21 07:57:04;;;;;;;0.77;0.40;;;15.70;50.70;;;13.94;55.35;95638.56;5028609;28;20116;-69
2021/05/21 07:59:30;;;;;;;1.38;0.50;;;15.70;50.80;;;13.99;55.95;95641.34;5040764;28;20037;-69
2021/05/21 08:01:56;;;;;;;4.43;1.10;;;15.90;51.70;;;14.07;55.96;95640.25;5011860;28;20112;-68
2021/05/21 08:04:21;;;;;;;2.80;0.80;;;16.00;52.00;;;14.10;54.96;95637.97;5023749;28;20041;-68
2021/05/21 08:06:47;;;;;;;8.35;5.85;;;16.00;51.30;;;14.12;55.27;95629.81;5031513;28;20033;-68
2021/05/21 08:09:13;;;;;;;3.25;0.90;;;16.10;52.10;;;14.12;56.15;95634.28;5012974;28;20033;-68
2021/05/21 08:11:39;;;;;;;1.95;0.50;;;15.90;51.70;;;14.14;55.19;95629.59;5031287;28;20033;-67
2021/05/21 08:14:06;;;;;;;2.13;0.60;;;16.00;51.70;;;14.16;55.78;95619.59;5031947;28;20025;-68
2021/05/21 08:16:31;;;;;;;1.45;0.65;;;16.10;52.30;;;14.22;57.03;95606.28;5014466;28;20496;-68
2021/05/21 08:18:57;;;;;;;4.00;0.60;;;16.20;53.60;;;14.29;57.47;95599.09;5045473;28;20065;-68
2021/05/21 08:21:26;;;;;;;4.55;0.90;;;16.30;54.20;;;14.35;58.16;95592.06;5031718;28;20060;-68
2021/05/21 08:23:52;;;;;;;2.80;1.35;;;16.40;55.60;;;14.40;58.32;95608.88;4996299;28;20084;-66
2021/05/21 08:26:20;;;;;;;2.13;0.50;;;16.50;54.30;;;14.43;56.61;95609.47;5047627;28;20066;-65
2021/05/21 08:28:45;;;;;;;16.77;10.90;;;16.30;54.80;;;14.44;58.20;95606.63;5040327;28;20036;-64
2021/05/21 08:31:11;;;;;;;12.13;6.38;;;16.40;54.80;;;14.48;58.01;95597.19;5018186;28;20034;-66
2021/05/21 08:33:43;;;;;;;6.15;3.47;;;16.50;56.00;;;14.54;58.87;95596.31;5033933;28;20036;-66
2021/05/21 08:36:10;;;;;;;1.30;0.80;;;16.50;55.10;;;14.57;58.51;95590.56;5033261;28;20044;-67
2021/05/21 08:38:37;;;;;;;1.13;0.47;;;16.60;55.00;;;14.63;58.40;95584.38;5032602;28;20040;-68
2021/05/21 08:41:04;;;;;;;7.85;0.75;;;16.70;54.40;;;14.69;57.21;95586.09;5034444;28;20026;-67
2021/05/21 08:43:31;;;;;;;1.63;0.50;;;16.70;53.80;;;14.74;56.92;95585.44;5017602;28;20392;-66
2021/05/21 08:45:58;;;;;;;2.08;0.65;;;16.70;53.50;;;14.77;57.10;95589.47;5036341;28;20103;-66
2021/05/21 08:48:23;;;;;;;7.88;2.58;;;16.80;54.70;;;14.79;57.82;95592.69;5031674;28;20631;-66
2021/05/21 08:50:49;;;;;;;4.18;1.52;;;16.60;53.60;;;14.76;57.62;95593.97;5042663;28;20040;-66
2021/05/21 08:53:15;;;;;;;1.65;0.80;;;16.60;53.60;;;14.77;56.81;95595.56;5012314;28;20033;-65
2021/05/21 08:55:41;;;;;;;2.35;0.60;;;16.50;52.00;;;14.76;57.09;95599.25;5011723;28;20037;-66
2021/05/21 08:58:11;;;;;;;3.03;0.55;;;16.50;53.10;;;14.75;56.79;95600.28;5026534;28;20040;-66
2021/05/21 09:00:41;;;;;;;1.40;0.77;;;16.50;54.90;;;14.75;56.30;95586.25;5029823;28;20500;-66
2021/05/21 09:03:24;;;;;;;4.45;2.83;;;16.40;53.70;;;14.79;56.10;95587.41;5041766;28;20037;-66
2021/05/21 09:06:22;;;;;;;9.00;4.97;;;16.60;53.00;;;14.89;57.03;95577.03;5029760;28;20374;-65
2021/05/21 09:08:52;;;;;;;6.15;3.03;;;16.90;53.60;;;15.01;57.29;95573.38;4995677;28;20041;-67
2021/05/21 09:11:28;;;;;;;1.77;0.70;;;17.10;52.70;;;15.15;55.42;95575.78;5017198;28;20029;-66
2021/05/21 09:14:18;;;;;;;1.58;0.57;;;17.40;51.40;;;15.35;55.24;95572.81;5052215;28;20593;-66
2021/05/21 09:16:45;;;;;;;1.60;0.63;;;17.70;51.20;;;15.48;56.57;95576.03;5033950;28;20037;-67
2021/05/21 09:19:15;;;;;;;2.08;0.50;;;17.70;50.60;;;15.59;54.80;95577.88;5026580;28;20157;-66
2021/05/21 09:21:51;;;;;;;3.17;0.63;;;17.80;49.60;;;15.76;54.99;95570.03;5021731;28;20116;-66
2021/05/21 09:24:27;;;;;;;2.75;1.30;;;18.10;49.70;;;15.91;55.15;95565.03;5031653;28;20063;-66
2021/05/21 09:26:53;;;;;;;1.60;0.90;;;18.30;49.30;;;16.11;54.52;95569.94;5033289;28;20120;-65
2021/05/21 09:29:47;;;;;;;1.42;0.70;;;18.60;48.20;;;16.29;53.19;95570.75;5029187;28;20112;-66
2021/05/21 09:32:33;;;;;;;3.75;0.80;;;18.60;47.00;;;16.42;53.34;95576.59;5023896;28;20112;-66
2021/05/21 09:35:21;;;;;;;1.50;0.70;;;18.60;47.90;;;16.54;53.12;95580.03;5013144;28;20033;-66
2021/05/21 09:37:52;;;;;;;1.10;0.60;;;18.70;47.90;;;16.65;53.63;95572.22;5037100;28;20030;-67
2021/05/21 09:40:21;;;;;;;1.33;0.65;;;18.80;48.30;;;16.68;52.35;95574.41;5009807;28;20039;-67
2021/05/21 09:42:53;;;;;;;0.80;0.47;;;18.60;45.70;;;16.63;51.48;95571.66;5031139;28;20041;-67
2021/05/21 09:45:27;;;;;;;2.53;0.47;;;18.40;47.60;;;16.57;50.95;95575.28;5035987;28;20083;-66
2021/05/21 09:48:06;;;;;;;3.00;0.50;;;18.30;46.40;;;16.50;51.44;95568.25;5035600;28;20029;-67
2021/05/21 09:50:42;;;;;;;1.52;0.60;;;18.20;47.30;;;16.48;51.41;95559.72;5031577;28;20074;-65
2021/05/21 09:53:11;;;;;;;3.65;0.57;;;18.30;46.80;;;16.39;50.56;95561.16;5014610;28;20045;-66
2021/05/21 09:55:50;;;;;;;4.35;0.60;;;18.00;45.80;;;16.38;50.48;95564.84;5029498;28;20045;-66
2021/05/21 09:58:37;;;;;;;1.77;0.50;;;18.10;45.80;;;16.38;50.05;95569.34;5027999;28;20397;-69
2021/05/21 10:01:23;;;;;;;2.42;0.55;;;18.10;46.00;;;16.37;50.44;95567.75;5032754;28;20053;-67
2021/05/21 10:03:54;;;;;;;0.73;0.40;;;18.10;46.40;;;16.34;51.46;95569.03;5043143;28;20036;-69
2021/05/21 10:06:27;;;;;;;7.30;3.45;;;17.90;46.00;;;16.34;50.20;95577.00;5030509;28;20060;-68
2021/05/21 10:08:56;;;;;;;4.40;1.38;;;18.00;47.40;;;16.33;51.71;95571.94;5012861;28;20037;-68
2021/05/21 10:11:22;;;;;;;2.40;0.52;;;17.90;47.60;;;16.32;50.82;95571.13;5012334;28;20116;-68
2021/05/21 10:13:47;;;;;;;2.60;0.90;;;17.90;46.00;;;16.32;50.76;95565.81;5029208;28;20048;-66
2021/05/21 10:16:20;;;;;;;2.58;0.50;;;18.10;45.80;;;16.37;49.18;95563.25;5029328;28;20029;-69
2021/05/21 10:18:50;;;;;;;2.20;0.50;;;18.20;45.40;;;16.46;49.50;95571.63;5030034;28;20563;-69
2021/05/21 10:21:17;;;;;;;0.90;0.40;;;18.50;45.40;;;16.56;50.36;95573.66;5016801;28;20173;-64
2021/05/21 10:23:58;;;;;;;0.93;0.63;;;18.60;44.80;;;16.64;50.14;95581.22;5009417;28;20248;-66